Time;durP1;ratioP1;P1;durP2;ratioP2;P2;SDS_P1;SDS_P2;PMS_P1;PMS_P2;Temp;Humidity;BMP_temperature;BMP_pressure;BME280_temperature;BME280_humidity;BME280_pressure;Samples;Min_cycle;Max_cycle;Signal;HPM_P1;HPM_P2
2021/09/17 00:00:01;;;;;;;5.50;4.80;;;12.80;99.90;;;;;;4976558;28;20435;-69
2021/09/17 00:02:26;;;;;;;4.30;3.80;;;12.80;99.90;;;;;;4976860;28;20181;-68
2021/09/17 00:04:52;;;;;;;4.73;4.30;;;12.80;99.90;;;;;;4976736;28;20182;-68
2021/09/17 00:07:18;;;;;;;7.43;4.70;;;12.70;99.90;;;;;;4976227;28;20197;-68
2021/09/17 00:09:44;;;;;;;3.93;3.53;;;12.80;99.90;;;;;;4987120;28;20658;-70
2021/09/17 00:12:09;;;;;;;6.73;5.40;;;12.80;99.90;;;;;;4996011;28;20417;-67
2021/09/17 00:14:35;;;;;;;4.53;4.10;;;12.80;99.90;;;;;;4995867;28;20198;-68
2021/09/17 00:17:01;;;;;;;5.73;3.17;;;12.80;99.90;;;;;;4995357;28;20222;-69
2021/09/17 00:19:26;;;;;;;5.03;4.63;;;12.80;99.90;;;;;;4995801;28;20196;-69
2021/09/17 00:21:52;;;;;;;5.33;4.83;;;12.80;99.90;;;;;;4995807;28;20169;-69
2021/09/17 00:24:17;;;;;;;13.10;4.00;;;12.80;99.90;;;;;;4995534;28;20178;-66
2021/09/17 00:26:43;;;;;;;3.80;3.50;;;12.70;99.90;;;;;;4995239;28;20189;-71
2021/09/17 00:29:09;;;;;;;4.60;4.13;;;12.70;99.90;;;;;;4995458;28;20198;-70
2021/09/17 00:31:34;;;;;;;4.70;4.07;;;12.70;99.90;;;;;;4996023;28;20170;-69
2021/09/17 00:34:00;;;;;;;4.30;3.90;;;12.70;99.90;;;;;;4995725;28;20223;-68
2021/09/17 00:36:26;;;;;;;4.90;4.23;;;12.70;99.90;;;;;;4995385;28;20578;-69
2021/09/17 00:38:51;;;;;;;5.97;4.23;;;12.70;99.90;;;;;;4995300;28;20611;-70
2021/09/17 00:41:17;;;;;;;5.47;4.30;;;12.70;99.90;;;;;;4995628;28;20201;-69
2021/09/17 00:43:43;;;;;;;4.00;3.43;;;12.70;99.90;;;;;;4977846;28;20652;-68
2021/09/17 00:46:08;;;;;;;4.40;3.90;;;12.60;99.90;;;;;;4995299;28;20179;-69
2021/09/17 00:48:34;;;;;;;5.30;3.63;;;12.70;99.90;;;;;;4977412;28;20236;-68
2021/09/17 00:51:00;;;;;;;7.23;2.93;;;12.60;99.90;;;;;;4977837;28;20197;-69
2021/09/17 00:53:25;;;;;;;4.83;4.33;;;12.60;99.90;;;;;;4976040;28;20204;-69
2021/09/17 00:55:51;;;;;;;3.80;3.47;;;12.70;99.90;;;;;;4976532;28;20183;-69
2021/09/17 00:58:17;;;;;;;4.33;3.90;;;12.70;99.90;;;;;;4975586;28;20196;-67
2021/09/17 01:00:43;;;;;;;4.10;3.70;;;12.70;99.90;;;;;;4975916;28;20404;-69
2021/09/17 01:03:08;;;;;;;5.20;4.70;;;12.70;99.90;;;;;;4975938;28;20249;-68
2021/09/17 01:05:35;;;;;;;5.30;4.80;;;12.70;99.90;;;;;;4976114;28;20650;-70
2021/09/17 01:08:01;;;;;;;4.75;3.95;;;12.70;99.90;;;;;;4975279;28;20209;-69
2021/09/17 01:10:27;;;;;;;4.80;3.78;;;12.70;99.90;;;;;;4975519;28;20599;-69
2021/09/17 01:12:54;;;;;;;5.10;3.83;;;12.70;99.90;;;;;;4975512;28;20193;-69
2021/09/17 01:15:19;;;;;;;4.70;4.20;;;12.80;99.90;;;;;;4975649;28;20178;-68
2021/09/17 01:17:45;;;;;;;4.70;3.93;;;12.80;99.90;;;;;;4974911;28;20255;-69
2021/09/17 01:20:16;;;;;;;7.30;4.37;;;12.80;99.90;;;;;;4976204;28;20282;-68
2021/09/17 01:22:43;;;;;;;5.57;4.67;;;12.90;99.90;;;;;;4975145;28;20405;-69
2021/09/17 01:25:12;;;;;;;5.03;4.30;;;12.90;99.90;;;;;;4988932;28;20503;-68
2021/09/17 01:27:37;;;;;;;5.57;5.07;;;12.80;99.90;;;;;;4994404;28;20463;-69
2021/09/17 01:30:05;;;;;;;4.77;4.30;;;12.80;99.90;;;;;;4994593;28;20407;-68
2021/09/17 01:32:30;;;;;;;6.30;4.07;;;12.80;99.90;;;;;;4977136;28;20215;-68
2021/09/17 01:34:56;;;;;;;4.23;3.83;;;12.80;99.90;;;;;;4994559;28;20416;-69
2021/09/17 01:37:22;;;;;;;4.27;3.77;;;12.90;99.90;;;;;;4994109;28;20568;-69
2021/09/17 01:39:47;;;;;;;3.47;3.17;;;12.90;99.90;;;;;;4990976;28;20656;-69
2021/09/17 01:42:13;;;;;;;5.27;3.90;;;12.90;99.90;;;;;;4994642;28;20193;-68
2021/09/17 01:44:40;;;;;;;7.10;5.00;;;13.00;99.90;;;;;;4994218;28;20179;-69
2021/09/17 01:47:07;;;;;;;6.07;4.50;;;13.00;99.90;;;;;;4976411;28;20264;-68
2021/09/17 01:49:33;;;;;;;8.17;5.67;;;13.00;99.90;;;;;;4993872;28;20454;-68
2021/09/17 01:51:59;;;;;;;6.30;4.00;;;13.00;99.90;;;;;;4994140;28;20422;-66
2021/09/17 01:54:24;;;;;;;4.40;4.00;;;13.00;99.90;;;;;;4994020;28;20445;-69
2021/09/17 01:56:50;;;;;;;5.37;4.87;;;13.00;99.90;;;;;;4993785;28;20180;-69
2021/09/17 01:59:16;;;;;;;4.80;4.30;;;13.00;99.90;;;;;;4985422;28;20212;-67
2021/09/17 02:01:42;;;;;;;5.17;4.67;;;13.10;99.90;;;;;;4994162;28;20764;-69
2021/09/17 02:04:07;;;;;;;5.23;4.73;;;13.00;99.90;;;;;;4994046;28;20304;-70
2021/09/17 02:06:33;;;;;;;6.33;5.40;;;13.10;99.90;;;;;;4993980;28;20181;-69
2021/09/17 02:09:01;;;;;;;5.50;5.00;;;13.10;99.90;;;;;;4994164;28;20197;-69
2021/09/17 02:11:27;;;;;;;5.57;5.07;;;13.20;99.90;;;;;;4993930;28;20184;-69
2021/09/17 02:13:53;;;;;;;5.13;4.60;;;13.20;99.90;;;;;;4992315;28;20432;-69
2021/09/17 02:16:18;;;;;;;5.90;5.30;;;13.20;99.90;;;;;;4985211;28;20653;-71
2021/09/17 02:18:44;;;;;;;9.10;4.40;;;13.20;99.90;;;;;;4974198;28;20239;-68
2021/09/17 02:21:10;;;;;;;6.27;5.67;;;13.20;99.90;;;;;;4974415;28;20261;-69
2021/09/17 02:23:35;;;;;;;8.00;7.20;;;13.20;99.90;;;;;;4974499;28;20262;-69
2021/09/17 02:26:01;;;;;;;6.10;4.30;;;13.20;99.90;;;;;;4974218;28;20175;-69
2021/09/17 02:28:27;;;;;;;6.43;4.80;;;13.20;99.90;;;;;;4987290;28;20268;-67
2021/09/17 02:30:53;;;;;;;5.13;4.63;;;13.30;99.90;;;;;;4993733;28;20177;-68
2021/09/17 02:33:18;;;;;;;7.13;5.57;;;13.20;99.90;;;;;;4993708;28;20179;-67
2021/09/17 02:35:44;;;;;;;5.50;4.80;;;13.20;99.90;;;;;;4993549;28;20787;-69
2021/09/17 02:38:10;;;;;;;4.77;4.30;;;13.30;99.90;;;;;;4993032;28;20205;-68
2021/09/17 02:40:35;;;;;;;4.87;4.37;;;13.30;99.90;;;;;;4993610;28;20170;-70
2021/09/17 02:43:01;;;;;;;4.23;3.83;;;13.30;99.90;;;;;;4991706;28;20655;-66
2021/09/17 02:45:27;;;;;;;8.00;4.70;;;13.30;99.90;;;;;;4993408;28;20173;-68
2021/09/17 02:47:53;;;;;;;5.53;4.30;;;13.30;99.90;;;;;;4993010;28;20548;-68
2021/09/17 02:50:18;;;;;;;4.93;4.30;;;13.30;99.90;;;;;;4993090;28;20464;-68
2021/09/17 02:52:44;;;;;;;4.63;3.80;;;13.40;99.90;;;;;;4993073;28;20248;-68
2021/09/17 02:55:10;;;;;;;5.23;4.73;;;13.40;99.90;;;;;;4993383;28;20264;-69
2021/09/17 02:57:37;;;;;;;6.60;4.87;;;13.40;99.90;;;;;;4978435;28;20220;-70
2021/09/17 03:00:06;;;;;;;16.40;4.70;;;13.40;99.90;;;;;;4957089;28;20614;-68
2021/09/17 03:02:32;;;;;;;5.77;4.67;;;13.40;99.90;;;;;;4974161;28;20413;-69
2021/09/17 03:04:58;;;;;;;4.47;4.10;;;13.30;99.90;;;;;;4973839;28;20426;-69
2021/09/17 03:07:23;;;;;;;4.77;4.30;;;13.40;99.90;;;;;;4973620;28;20182;-70
2021/09/17 03:09:49;;;;;;;7.53;5.00;;;13.30;99.90;;;;;;4974052;28;20260;-69
2021/09/17 03:12:14;;;;;;;5.07;3.87;;;13.40;99.90;;;;;;4987039;28;20190;-67
2021/09/17 03:14:40;;;;;;;6.40;5.20;;;13.40;99.90;;;;;;4993348;28;20532;-68
2021/09/17 03:17:06;;;;;;;7.40;5.80;;;13.30;99.90;;;;;;4975528;28;20212;-69
2021/09/17 03:19:31;;;;;;;5.90;4.50;;;13.40;99.90;;;;;;4992986;28;20246;-69
2021/09/17 03:22:00;;;;;;;5.17;4.70;;;13.40;99.90;;;;;;4993354;28;20533;-68
2021/09/17 03:24:26;;;;;;;5.63;4.10;;;13.40;99.90;;;;;;4997270;28;20170;-68
2021/09/17 03:26:52;;;;;;;4.77;4.30;;;13.50;99.90;;;;;;4984016;28;20454;-68
2021/09/17 03:29:17;;;;;;;5.40;3.97;;;13.40;99.90;;;;;;4993284;28;20538;-68
2021/09/17 03:31:43;;;;;;;4.13;3.63;;;13.40;99.90;;;;;;4979569;28;20240;-69
2021/09/17 03:34:09;;;;;;;5.60;4.33;;;13.40;99.90;;;;;;4996613;28;20524;-68
2021/09/17 03:36:42;;;;;;;4.40;4.00;;;13.40;99.90;;;;;;4996158;28;20189;-68
2021/09/17 03:39:08;;;;;;;6.80;4.23;;;13.40;99.90;;;;;;4996645;28;20213;-70
2021/09/17 03:41:33;;;;;;;4.60;4.20;;;13.40;99.90;;;;;;4984689;28;20464;-70
2021/09/17 03:43:59;;;;;;;5.20;4.67;;;13.40;99.90;;;;;;4977507;28;20462;-69
2021/09/17 03:46:25;;;;;;;4.97;4.47;;;13.40;99.90;;;;;;4977294;28;20174;-69
2021/09/17 03:48:51;;;;;;;6.33;4.60;;;13.40;99.90;;;;;;4981699;28;20291;-69
2021/09/17 03:51:16;;;;;;;6.80;4.93;;;13.40;99.90;;;;;;4996453;28;20628;-69
2021/09/17 03:53:42;;;;;;;6.17;5.07;;;13.50;99.90;;;;;;4996528;28;20409;-69
2021/09/17 03:56:07;;;;;;;4.93;4.47;;;13.50;99.90;;;;;;4996842;28;20178;-71
2021/09/17 03:58:33;;;;;;;7.13;5.07;;;13.50;99.90;;;;;;4995816;28;20206;-67
2021/09/17 04:00:59;;;;;;;4.67;3.87;;;13.50;99.90;;;;;;4996080;28;20171;-69
2021/09/17 04:03:25;;;;;;;5.73;4.70;;;13.50;99.90;;;;;;4991813;28;20175;-67
2021/09/17 04:05:50;;;;;;;8.80;5.27;;;13.50;99.90;;;;;;4976773;28;20167;-66
2021/09/17 04:08:16;;;;;;;5.50;5.00;;;13.50;99.90;;;;;;4976242;28;20172;-68
2021/09/17 04:10:41;;;;;;;7.10;5.00;;;13.40;99.90;;;;;;4976532;28;20276;-70
2021/09/17 04:13:07;;;;;;;6.53;4.90;;;13.40;99.90;;;;;;4976749;28;20544;-69
2021/09/17 04:15:33;;;;;;;4.80;4.30;;;13.40;99.90;;;;;;4976303;28;20242;-69
2021/09/17 04:17:59;;;;;;;4.97;4.17;;;13.50;99.90;;;;;;4958587;28;20198;-68
2021/09/17 04:20:24;;;;;;;6.77;4.90;;;13.50;99.90;;;;;;4976231;28;20190;-68
2021/09/17 04:22:50;;;;;;;6.60;5.90;;;13.40;99.90;;;;;;4976525;28;20938;-67
2021/09/17 04:25:17;;;;;;;9.40;6.20;;;13.50;99.90;;;;;;4976279;28;20170;-68
2021/09/17 04:27:44;;;;;;;7.47;6.00;;;13.50;99.90;;;;;;4975644;28;20183;-69
2021/09/17 04:30:12;;;;;;;8.73;5.50;;;13.50;99.90;;;;;;4987508;28;20444;-68
2021/09/17 04:32:38;;;;;;;7.03;5.47;;;13.50;99.90;;;;;;4994806;28;20500;-68
2021/09/17 04:35:05;;;;;;;6.17;5.30;;;13.40;99.90;;;;;;4995246;28;20428;-68
2021/09/17 04:37:31;;;;;;;6.20;5.30;;;13.50;99.90;;;;;;4995030;28;20194;-69
2021/09/17 04:39:56;;;;;;;4.83;4.30;;;13.40;99.90;;;;;;4995427;28;20475;-69
2021/09/17 04:42:22;;;;;;;4.90;4.50;;;13.40;99.90;;;;;;4995300;28;20660;-69
2021/09/17 04:44:48;;;;;;;5.37;4.07;;;13.40;99.90;;;;;;4992045;28;20259;-68
2021/09/17 04:47:13;;;;;;;4.53;3.80;;;13.40;99.90;;;;;;4994612;28;20182;-67
2021/09/17 04:49:39;;;;;;;4.97;3.83;;;13.30;99.90;;;;;;4995022;28;20198;-67
2021/09/17 04:52:05;;;;;;;6.40;3.83;;;13.30;99.90;;;;;;4977649;28;20212;-69
2021/09/17 04:54:30;;;;;;;5.77;4.30;;;13.20;99.90;;;;;;4995333;28;20223;-68
2021/09/17 04:56:56;;;;;;;6.17;5.50;;;13.20;99.90;;;;;;4994868;28;20168;-67
2021/09/17 04:59:21;;;;;;;6.93;6.23;;;13.10;99.90;;;;;;4993253;28;20212;-69
2021/09/17 05:01:48;;;;;;;6.67;5.30;;;13.10;99.90;;;;;;4995299;28;20528;-69
2021/09/17 05:04:13;;;;;;;5.85;5.25;;;13.00;99.90;;;;;;4994842;28;20192;-69
2021/09/17 05:06:41;;;;;;;4.50;4.10;;;13.00;99.90;;;;;;4994760;28;20169;-67
2021/09/17 05:09:06;;;;;;;6.60;5.17;;;12.90;99.90;;;;;;4994688;28;20664;-70
2021/09/17 05:11:32;;;;;;;6.77;5.20;;;12.90;99.90;;;;;;4977538;28;20436;-68
2021/09/17 05:13:57;;;;;;;5.40;4.67;;;12.90;99.90;;;;;;4958060;28;20583;-69
2021/09/17 05:16:23;;;;;;;6.67;4.87;;;12.90;99.90;;;;;;4975166;28;20253;-68
2021/09/17 05:18:49;;;;;;;6.10;5.27;;;13.00;99.90;;;;;;4974831;28;20205;-71
2021/09/17 05:21:15;;;;;;;5.10;4.57;;;13.00;99.90;;;;;;4958472;28;20246;-70
2021/09/17 05:23:40;;;;;;;6.40;5.70;;;13.00;99.90;;;;;;4975447;28;20249;-70
2021/09/17 05:26:07;;;;;;;5.70;4.93;;;13.10;99.90;;;;;;4958054;28;20209;-70
2021/09/17 05:28:33;;;;;;;5.80;5.20;;;13.10;99.90;;;;;;4974793;28;20632;-70
2021/09/17 05:30:59;;;;;;;6.27;5.20;;;13.20;99.90;;;;;;4975425;28;20417;-67
2021/09/17 05:33:25;;;;;;;7.47;5.67;;;13.20;99.90;;;;;;4957573;28;20425;-70
2021/09/17 05:35:51;;;;;;;5.67;4.70;;;13.20;99.90;;;;;;4957431;28;20425;-70
2021/09/17 05:38:17;;;;;;;8.40;5.80;;;13.30;99.90;;;;;;4974535;28;20271;-69
2021/09/17 05:40:42;;;;;;;9.83;6.33;;;13.30;99.90;;;;;;4993703;28;20280;-69
2021/09/17 05:43:08;;;;;;;8.83;6.33;;;13.30;99.90;;;;;;4994044;28;20590;-69
2021/09/17 05:45:33;;;;;;;6.83;5.43;;;13.40;99.90;;;;;;4993593;28;20178;-70
2021/09/17 05:47:59;;;;;;;8.90;6.00;;;13.50;99.90;;;;;;4979466;28;20266;-69
2021/09/17 05:50:25;;;;;;;7.27;5.77;;;13.50;99.90;;;;;;4974542;28;20716;-68
2021/09/17 05:52:50;;;;;;;6.13;5.40;;;13.50;99.90;;;;;;4974679;28;20213;-67
2021/09/17 05:55:16;;;;;;;6.70;5.80;;;13.60;99.90;;;;;;4993376;28;20186;-68
2021/09/17 05:57:42;;;;;;;5.53;5.03;;;13.60;99.90;;;;;;4993821;28;20205;-69
2021/09/17 06:00:10;;;;;;;7.23;5.40;;;13.70;99.90;;;;;;4993990;28;20993;-66
2021/09/17 06:02:36;;;;;;;7.13;5.20;;;13.70;99.90;;;;;;4994095;28;20728;-67
2021/09/17 06:05:03;;;;;;;6.67;6.00;;;13.80;99.90;;;;;;4993997;28;20499;-67
2021/09/17 06:07:31;;;;;;;6.67;5.40;;;13.80;99.90;;;;;;4993789;28;20392;-66
2021/09/17 06:09:57;;;;;;;6.20;5.60;;;13.90;99.90;;;;;;4994148;28;20564;-68
2021/09/17 06:12:23;;;;;;;5.23;4.60;;;14.00;99.90;;;;;;4994024;28;20861;-68
2021/09/17 06:14:48;;;;;;;5.63;5.03;;;14.10;99.90;;;;;;4994169;28;20183;-67
2021/09/17 06:17:14;;;;;;;5.40;4.87;;;14.10;99.90;;;;;;4975955;28;20758;-69
2021/09/17 06:19:40;;;;;;;7.87;4.80;;;14.20;99.90;;;;;;4993401;28;20312;-66
2021/09/17 06:22:05;;;;;;;6.57;5.10;;;14.30;99.90;;;;;;4993705;28;20244;-66
2021/09/17 06:24:31;;;;;;;5.53;4.53;;;14.40;99.90;;;;;;4993843;28;20533;-65
2021/09/17 06:26:56;;;;;;;4.63;4.20;;;14.40;99.90;;;;;;4993158;28;20225;-66
2021/09/17 06:29:22;;;;;;;5.73;4.03;;;14.40;99.90;;;;;;4993704;28;20285;-64
2021/09/17 06:31:48;;;;;;;5.33;3.83;;;14.50;99.90;;;;;;4976121;28;20704;-66
2021/09/17 06:34:14;;;;;;;4.90;3.70;;;14.60;99.90;;;;;;4956727;28;20453;-68
2021/09/17 06:36:39;;;;;;;5.70;4.30;;;14.50;99.90;;;;;;4973903;28;20554;-66
2021/09/17 06:39:05;;;;;;;4.93;4.43;;;14.60;99.90;;;;;;4974084;28;20217;-67
2021/09/17 06:41:31;;;;;;;4.73;4.30;;;14.60;99.90;;;;;;4974105;28;20234;-67
2021/09/17 06:43:57;;;;;;;3.77;3.40;;;14.50;99.90;;;;;;4974139;28;20179;-68
2021/09/17 06:46:23;;;;;;;5.43;4.93;;;14.60;99.90;;;;;;4975170;28;20458;-66
2021/09/17 06:48:48;;;;;;;3.87;3.00;;;14.70;99.90;;;;;;4992075;28;20975;-66
2021/09/17 06:51:14;;;;;;;4.90;4.03;;;14.70;99.90;;;;;;4993552;28;20264;-65
2021/09/17 06:53:40;;;;;;;5.70;4.10;;;14.70;99.90;;;;;;4993424;28;20218;-67
2021/09/17 06:56:05;;;;;;;4.57;4.07;;;14.80;99.90;;;;;;4993674;28;20592;-66
2021/09/17 06:58:31;;;;;;;4.47;3.60;;;14.80;99.90;;;;;;4996928;28;20277;-66
2021/09/17 07:00:58;;;;;;;4.87;4.20;;;14.80;99.90;;;;;;4997141;28;20170;-66
2021/09/17 07:03:24;;;;;;;4.40;4.00;;;14.90;99.90;;;;;;4961704;28;20398;-65
2021/09/17 07:05:50;;;;;;;4.90;4.50;;;15.00;99.90;;;;;;4977779;28;20415;-66
2021/09/17 07:08:18;;;;;;;12.10;4.83;;;14.90;99.90;;;;;;4976948;28;20421;-66
2021/09/17 07:10:44;;;;;;;5.70;5.20;;;15.00;99.90;;;;;;4977496;28;20259;-67
2021/09/17 07:13:11;;;;;;;4.43;4.03;;;15.10;99.90;;;;;;4984497;28;20573;-65
2021/09/17 07:15:36;;;;;;;6.33;4.70;;;15.20;99.90;;;;;;4996233;28;20271;-67
2021/09/17 07:18:03;;;;;;;6.63;4.40;;;15.20;99.90;;;;;;4995700;28;20548;-68
2021/09/17 07:20:29;;;;;;;4.77;4.37;;;15.20;99.90;;;;;;4996028;28;20202;-68
2021/09/17 07:22:55;;;;;;;5.07;4.00;;;15.20;99.90;;;;;;4995856;28;20410;-66
2021/09/17 07:25:20;;;;;;;4.60;4.13;;;15.30;99.90;;;;;;4995870;28;20897;-68
2021/09/17 07:27:47;;;;;;;5.93;5.40;;;15.40;99.90;;;;;;4987841;28;20187;-67
2021/09/17 07:30:14;;;;;;;3.57;3.23;;;15.50;99.90;;;;;;4975404;28;20239;-69
2021/09/17 07:32:40;;;;;;;4.47;4.10;;;15.60;99.90;;;;;;4975414;28;20423;-67
2021/09/17 07:35:06;;;;;;;4.53;3.93;;;15.70;99.90;;;;;;4975561;28;20790;-67
2021/09/17 07:37:32;;;;;;;4.37;2.90;;;15.80;99.90;;;;;;4975102;28;20211;-67
2021/09/17 07:39:58;;;;;;;5.27;4.23;;;16.00;99.90;;;;;;4976081;28;20422;-66
2021/09/17 07:42:24;;;;;;;6.07;5.00;;;16.10;99.90;;;;;;4975140;28;20784;-67
2021/09/17 07:44:50;;;;;;;4.50;3.93;;;16.30;99.90;;;;;;4976497;28;20403;-65
2021/09/17 07:47:15;;;;;;;5.27;4.13;;;16.40;99.90;;;;;;4976779;28;20382;-66
2021/09/17 07:49:41;;;;;;;8.10;3.90;;;16.40;99.90;;;;;;4988846;28;20217;-65
2021/09/17 07:52:08;;;;;;;3.90;3.60;;;16.50;99.90;;;;;;4995457;28;20230;-67
2021/09/17 07:54:33;;;;;;;4.20;3.80;;;16.60;99.90;;;;;;4996149;28;20852;-65
2021/09/17 07:56:59;;;;;;;4.47;4.07;;;16.60;99.90;;;;;;4995766;28;20444;-67
2021/09/17 07:59:25;;;;;;;4.93;3.80;;;16.70;99.90;;;;;;4996109;28;20208;-66
2021/09/17 08:01:50;;;;;;;4.13;3.73;;;16.80;99.90;;;;;;4996065;28;20201;-66
2021/09/17 08:04:16;;;;;;;4.17;3.77;;;16.90;99.90;;;;;;4984633;28;20185;-67
2021/09/17 08:06:42;;;;;;;7.00;3.63;;;16.90;99.90;;;;;;4976202;28;20185;-66
2021/09/17 08:09:08;;;;;;;3.53;3.23;;;17.00;99.90;;;;;;4975453;28;20282;-66
2021/09/17 08:11:34;;;;;;;4.90;3.20;;;17.00;99.90;;;;;;4960833;28;20578;-68
2021/09/17 08:14:00;;;;;;;4.43;3.40;;;17.10;99.90;;;;;;4996202;28;20181;-68
2021/09/17 08:16:26;;;;;;;4.50;4.10;;;17.20;99.90;;;;;;4995747;28;20397;-69
2021/09/17 08:18:51;;;;;;;4.43;4.03;;;17.30;99.90;;;;;;4995526;28;20442;-68
2021/09/17 08:21:17;;;;;;;5.47;4.30;;;17.30;99.90;;;;;;4978657;28;20559;-68
2021/09/17 08:23:43;;;;;;;3.53;3.23;;;17.50;99.90;;;;;;4995818;28;20191;-69
2021/09/17 08:26:10;;;;;;;4.10;3.30;;;17.60;99.90;;;;;;4994756;28;20177;-68
2021/09/17 08:28:35;;;;;;;4.73;3.73;;;17.70;99.90;;;;;;4975753;28;20409;-66
2021/09/17 08:31:03;;;;;;;4.30;4.00;;;17.70;99.90;;;;;;4958869;28;20427;-67
2021/09/17 08:33:29;;;;;;;3.53;3.10;;;17.80;99.90;;;;;;4976094;28;20420;-66
2021/09/17 08:35:55;;;;;;;5.00;4.53;;;17.90;99.90;;;;;;4958676;28;20423;-64
2021/09/17 08:38:21;;;;;;;3.63;3.17;;;18.00;99.90;;;;;;4958895;28;20460;-66
2021/09/17 08:40:51;;;;;;;7.00;5.10;;;18.20;99.90;;;;;;4958718;28;20662;-67
2021/09/17 08:43:17;;;;;;;3.30;2.63;;;18.30;99.90;;;;;;4976049;28;20548;-64
2021/09/17 08:45:42;;;;;;;4.40;3.93;;;18.50;99.90;;;;;;4976126;28;20477;-66
2021/09/17 08:48:10;;;;;;;9.37;3.87;;;18.60;99.90;;;;;;4975371;28;20419;-66
2021/09/17 08:50:36;;;;;;;5.07;4.13;;;18.70;99.90;;;;;;4975867;28;20188;-68
2021/09/17 08:53:02;;;;;;;4.67;4.30;;;18.70;99.90;;;;;;4985617;28;20426;-65
2021/09/17 08:55:28;;;;;;;6.27;4.77;;;18.60;99.90;;;;;;4965947;28;20215;-66
2021/09/17 08:57:54;;;;;;;4.20;3.53;;;18.60;99.90;;;;;;4975345;28;20520;-67
2021/09/17 09:00:25;;;;;;;3.73;3.40;;;18.70;99.90;;;;;;4975728;28;20196;-67
2021/09/17 09:02:54;;;;;;;4.00;3.60;;;18.80;99.90;;;;;;4975690;28;20258;-66
2021/09/17 09:05:33;;;;;;;5.60;3.63;;;18.80;99.90;;;;;;4975620;28;20841;-67
2021/09/17 09:08:00;;;;;;;3.20;2.70;;;18.80;99.90;;;;;;4975419;28;20398;-66
2021/09/17 09:10:26;;;;;;;4.57;3.47;;;18.80;99.90;;;;;;4957889;28;20946;-66
2021/09/17 09:12:54;;;;;;;3.00;2.80;;;18.90;99.90;;;;;;4975474;28;20917;-64
2021/09/17 09:15:25;;;;;;;4.33;3.43;;;18.90;99.90;;;;;;4975339;28;20447;-64
2021/09/17 09:17:53;;;;;;;3.37;3.03;;;18.90;99.90;;;;;;4975003;28;20881;-65
2021/09/17 09:20:29;;;;;;;6.50;3.93;;;19.10;99.90;;;;;;4978443;28;20793;-64
2021/09/17 09:23:11;;;;;;;3.10;2.90;;;19.20;99.90;;;;;;4994615;28;20476;-65
2021/09/17 09:26:00;;;;;;;3.90;3.50;;;19.40;99.90;;;;;;4994385;28;20517;-66
2021/09/17 09:28:37;;;;;;;3.67;3.37;;;19.60;99.90;;;;;;4994192;28;20809;-66
2021/09/17 09:31:09;;;;;;;4.93;4.00;;;19.50;99.90;;;;;;4974704;28;20407;-66
2021/09/17 09:33:38;;;;;;;3.17;2.87;;;19.50;99.90;;;;;;4975448;28;20446;-66
2021/09/17 09:36:15;;;;;;;6.80;5.60;;;19.70;99.90;;;;;;4975136;28;20435;-66
2021/09/17 09:38:41;;;;;;;4.07;3.40;;;19.90;99.90;;;;;;4974410;28;20467;-66
2021/09/17 09:41:12;;;;;;;4.90;4.03;;;20.20;99.90;;;;;;4975344;28;20736;-67
2021/09/17 09:43:56;;;;;;;4.63;3.37;;;20.50;99.90;;;;;;4976065;28;20429;-67
2021/09/17 09:46:38;;;;;;;3.87;3.50;;;20.40;99.90;;;;;;4975091;28;20419;-66
2021/09/17 09:49:26;;;;;;;3.57;3.27;;;20.50;99.90;;;;;;4974625;28;20439;-66
2021/09/17 09:52:06;;;;;;;5.13;3.90;;;20.50;99.90;;;;;;4975005;28;20502;-67
2021/09/17 09:54:34;;;;;;;4.73;3.47;;;20.70;99.90;;;;;;4974728;28;20419;-66
2021/09/17 09:57:01;;;;;;;4.10;3.73;;;20.80;99.90;;;;;;4974522;28;20427;-68
2021/09/17 09:59:32;;;;;;;3.50;3.20;;;21.00;99.90;;;;;;4986374;28;20880;-66
2021/09/17 10:02:00;;;;;;;3.80;3.50;;;21.20;99.90;;;;;;4993488;28;20417;-66
2021/09/17 10:04:28;;;;;;;4.50;3.20;;;21.40;99.90;;;;;;4994180;28;20498;-67
2021/09/17 10:07:11;;;;;;;4.67;3.53;;;21.50;99.90;;;;;;4993799;28;20413;-67
2021/09/17 10:09:40;;;;;;;4.20;3.10;;;21.60;99.90;;;;;;4982030;28;20819;-67
2021/09/17 10:12:07;;;;;;;3.43;3.17;;;21.80;99.90;;;;;;4957078;28;20834;-68
2021/09/17 10:14:35;;;;;;;5.40;2.90;;;22.00;99.90;;;;;;4974469;28;20426;-67
2021/09/17 10:17:07;;;;;;;2.70;2.50;;;22.30;99.90;;;;;;4974097;28;20395;-68
2021/09/17 10:19:33;;;;;;;3.17;2.87;;;22.40;99.90;;;;;;4956847;28;20470;-67
2021/09/17 10:22:09;;;;;;;3.60;3.30;;;22.60;99.90;;;;;;4974357;28;20475;-67
2021/09/17 10:24:38;;;;;;;3.30;3.07;;;22.60;99.90;;;;;;4974654;28;20454;-68
2021/09/17 10:27:22;;;;;;;5.73;4.27;;;22.60;99.90;;;;;;4989830;28;20821;-68
2021/09/17 10:29:54;;;;;;;4.93;3.97;;;22.80;99.90;;;;;;4993582;28;20397;-67
2021/09/17 10:32:41;;;;;;;3.57;3.27;;;22.80;99.90;;;;;;4993404;28;20373;-65
2021/09/17 10:35:12;;;;;;;5.30;3.20;;;22.60;99.90;;;;;;4993599;28;20374;-66
2021/09/17 10:37:50;;;;;;;4.13;3.77;;;22.60;99.90;;;;;;4993256;28;20457;-66
2021/09/17 10:40:16;;;;;;;3.10;2.83;;;22.70;99.90;;;;;;4974377;28;20406;-66
2021/09/17 10:43:10;;;;;;;4.27;3.90;;;22.80;99.90;;;;;;4993545;28;20407;-66
2021/09/17 10:45:45;;;;;;;3.70;3.40;;;23.00;99.50;;;;;;4986078;28;20180;-66
2021/09/17 10:48:15;;;;;;;3.20;2.90;;;23.00;99.10;;;;;;4992966;28;20417;-67
2021/09/17 10:50:44;;;;;;;3.70;3.40;;;23.20;99.30;;;;;;4993389;28;20548;-67
2021/09/17 10:53:11;;;;;;;4.33;3.90;;;23.10;98.60;;;;;;4993306;28;20389;-66
2021/09/17 10:55:56;;;;;;;3.20;3.00;;;23.20;98.80;;;;;;4993304;28;20403;-66
2021/09/17 10:58:26;;;;;;;3.63;3.13;;;23.30;99.20;;;;;;4975111;28;20440;-68
2021/09/17 11:00:56;;;;;;;3.70;3.40;;;23.30;98.60;;;;;;4993147;28;20414;-67
2021/09/17 11:03:46;;;;;;;5.23;2.80;;;23.40;98.50;;;;;;4990106;28;20502;-67
2021/09/17 11:09:03;;;;;;;3.30;2.63;;;23.70;98.70;;;;;;4973258;28;20443;-68
2021/09/17 11:11:44;;;;;;;3.20;3.00;;;23.80;97.70;;;;;;4974028;28;20390;-67
2021/09/17 11:14:20;;;;;;;5.93;3.30;;;24.00;97.10;;;;;;4973519;28;20441;-67
2021/09/17 11:16:48;;;;;;;6.10;3.73;;;23.90;96.50;;;;;;4973535;28;20435;-66
2021/09/17 11:19:17;;;;;;;3.50;3.20;;;23.70;96.70;;;;;;4973492;28;20433;-67
2021/09/17 11:21:45;;;;;;;3.80;3.50;;;23.50;97.50;;;;;;4973701;28;20422;-67
2021/09/17 11:24:26;;;;;;;2.70;2.53;;;23.40;97.60;;;;;;4973736;28;20382;-69
2021/09/17 11:26:53;;;;;;;2.30;2.10;;;23.30;95.90;;;;;;4955922;28;20386;-67
2021/09/17 11:29:21;;;;;;;2.80;2.60;;;23.20;95.30;;;;;;4977842;28;20445;-68
2021/09/17 11:31:50;;;;;;;2.33;2.20;;;23.20;96.50;;;;;;4993198;28;20411;-72
2021/09/17 11:34:19;;;;;;;3.10;2.90;;;23.10;96.40;;;;;;4993129;28;20407;-68
2021/09/17 11:36:55;;;;;;;3.20;3.00;;;22.90;94.70;;;;;;4991509;28;20757;-68
2021/09/17 11:39:23;;;;;;;3.40;3.10;;;22.60;94.80;;;;;;4991802;28;20821;-69
2021/09/17 11:41:53;;;;;;;2.77;2.57;;;22.40;95.40;;;;;;4992208;28;20390;-69
2021/09/17 11:44:44;;;;;;;6.23;2.20;;;22.30;96.60;;;;;;4992889;28;20500;-69
2021/09/17 11:47:12;;;;;;;3.93;2.90;;;22.20;97.40;;;;;;4995409;28;20766;-68
2021/09/17 11:49:43;;;;;;;3.40;3.10;;;22.30;97.50;;;;;;4983596;28;20430;-68
2021/09/17 11:52:11;;;;;;;3.17;2.97;;;22.20;97.10;;;;;;4978454;28;20736;-68
2021/09/17 11:54:37;;;;;;;3.07;2.77;;;22.10;97.20;;;;;;4992795;28;20401;-68
2021/09/17 11:57:06;;;;;;;2.80;2.60;;;22.00;96.90;;;;;;4995885;28;20464;-69
2021/09/17 11:59:37;;;;;;;3.70;2.43;;;22.00;95.50;;;;;;4996179;28;20444;-72
2021/09/17 12:02:17;;;;;;;2.30;2.10;;;22.10;95.60;;;;;;4994733;28;20453;-67
2021/09/17 12:04:54;;;;;;;2.70;2.50;;;22.40;97.10;;;;;;4982065;28;20427;-67
2021/09/17 12:07:20;;;;;;;2.77;2.67;;;22.70;96.00;;;;;;4975404;28;20390;-68
2021/09/17 12:09:46;;;;;;;2.83;2.30;;;22.80;95.40;;;;;;4976048;28;20439;-66
2021/09/17 12:12:13;;;;;;;2.30;2.10;;;22.60;94.20;;;;;;4976380;28;20396;-69
2021/09/17 12:14:48;;;;;;;1.80;1.50;;;22.30;92.60;;;;;;4975043;28;20386;-68
2021/09/17 12:17:14;;;;;;;1.37;1.27;;;22.30;91.30;;;;;;4956766;28;20474;-67
2021/09/17 12:19:58;;;;;;;1.13;1.13;;;22.40;91.50;;;;;;4975507;28;20471;-66
2021/09/17 12:22:47;;;;;;;1.40;1.30;;;22.60;92.10;;;;;;4976053;28;20188;-66
2021/09/17 12:25:18;;;;;;;2.20;1.30;;;22.90;91.70;;;;;;4994090;28;20421;-66
2021/09/17 12:27:46;;;;;;;1.90;1.80;;;23.10;90.10;;;;;;4995044;28;20404;-72
2021/09/17 12:30:20;;;;;;;3.70;3.10;;;23.30;90.70;;;;;;4995948;28;20389;-70
2021/09/17 12:33:15;;;;;;;3.00;2.80;;;23.30;92.10;;;;;;4994479;28;20450;-72
2021/09/17 12:35:46;;;;;;;2.90;2.33;;;23.20;92.50;;;;;;4984763;28;20458;-71
2021/09/17 12:38:14;;;;;;;2.00;1.80;;;23.10;92.40;;;;;;4975591;28;20422;-68
2021/09/17 12:40:51;;;;;;;3.63;2.50;;;22.90;92.80;;;;;;4976388;28;20751;-72
2021/09/17 12:43:27;;;;;;;2.30;2.07;;;22.90;92.50;;;;;;4983509;28;20415;-75
2021/09/17 12:46:03;;;;;;;2.70;2.47;;;22.80;92.30;;;;;;4995650;28;20412;-72
2021/09/17 12:48:31;;;;;;;1.87;1.77;;;22.60;92.50;;;;;;4993313;28;20812;-69
2021/09/17 12:50:57;;;;;;;2.60;2.40;;;22.50;92.40;;;;;;4993232;28;20766;-67